Time;durP1;ratioP1;P1;durP2;ratioP2;P2;SDS_P1;SDS_P2;PMS_P1;PMS_P2;Temp;Humidity;BMP_temperature;BMP_pressure;BME280_temperature;BME280_humidity;BME280_pressure;Samples;Min_cycle;Max_cycle;Signal;HPM_P1;HPM_P2
2022/04/25 00:02:07;;;;;;;7.97;7.10;;;8.20;99.90;;;;;;8218415;28;20215;-65
2022/04/25 00:06:08;;;;;;;7.97;7.17;;;8.30;99.90;;;;;;8220164;28;20231;-65
2022/04/25 00:10:09;;;;;;;8.20;6.70;;;8.30;99.90;;;;;;8220031;28;20303;-66
2022/04/25 00:14:11;;;;;;;11.73;7.27;;;8.30;99.90;;;;;;8237736;28;20185;-67
2022/04/25 00:18:12;;;;;;;9.40;7.37;;;8.30;99.90;;;;;;8221450;28;20188;-66
2022/04/25 00:22:13;;;;;;;10.60;7.83;;;8.40;99.90;;;;;;8236817;28;20272;-68
2022/04/25 00:26:14;;;;;;;9.83;8.27;;;8.40;99.90;;;;;;8221692;28;20191;-69
2022/04/25 00:30:14;;;;;;;9.53;7.73;;;8.40;99.90;;;;;;8244562;28;20215;-69
2022/04/25 00:34:15;;;;;;;8.97;7.70;;;8.30;99.90;;;;;;8219633;28;20189;-69
2022/04/25 00:38:16;;;;;;;8.70;7.80;;;8.30;99.90;;;;;;8234660;28;20228;-68
2022/04/25 00:42:17;;;;;;;8.70;7.17;;;8.30;99.90;;;;;;8218590;28;20182;-70
2022/04/25 00:46:22;;;;;;;10.90;7.80;;;8.30;99.90;;;;;;8234109;28;20220;-69
2022/04/25 00:50:23;;;;;;;8.83;7.13;;;8.30;99.90;;;;;;8234468;28;20216;-70
2022/04/25 00:54:24;;;;;;;7.83;7.03;;;8.30;99.90;;;;;;8234808;28;20309;-71
2022/04/25 00:58:24;;;;;;;8.67;7.23;;;8.30;99.90;;;;;;8234091;28;20223;-71
2022/04/25 01:02:27;;;;;;;9.53;6.80;;;8.30;99.90;;;;;;8218196;28;20195;-71
2022/04/25 01:06:28;;;;;;;8.20;7.33;;;8.20;99.90;;;;;;8220207;28;20184;-71
2022/04/25 01:10:29;;;;;;;8.67;7.17;;;8.20;99.90;;;;;;8234487;28;20208;-71
2022/04/25 01:14:29;;;;;;;10.20;8.97;;;8.10;99.90;;;;;;8217271;28;20185;-71
2022/04/25 01:18:30;;;;;;;10.97;9.40;;;8.20;99.90;;;;;;8234224;28;20185;-70
2022/04/25 01:22:36;;;;;;;14.83;11.77;;;8.20;99.90;;;;;;8216874;28;20302;-70
2022/04/25 01:30:56;;;;;;;16.63;13.27;;;8.20;99.90;;;;;;8213892;28;20283;-67
2022/04/25 01:34:57;;;;;;;18.80;15.07;;;8.10;99.90;;;;;;8210915;28;20189;-71
2022/04/25 01:38:58;;;;;;;19.53;14.50;;;8.20;99.90;;;;;;8215306;28;20204;-70
2022/04/25 01:42:59;;;;;;;20.57;16.93;;;8.20;99.90;;;;;;8218716;28;20199;-67
2022/04/25 01:47:01;;;;;;;22.33;16.80;;;8.30;99.90;;;;;;8232924;28;20193;-70
2022/04/25 01:51:02;;;;;;;18.20;15.43;;;8.20;99.90;;;;;;8232589;28;20235;-71
2022/04/25 01:55:04;;;;;;;18.97;16.13;;;8.20;99.90;;;;;;8229434;28;20184;-70
2022/04/25 01:59:05;;;;;;;18.27;15.60;;;8.20;99.90;;;;;;8232359;28;20509;-67
2022/04/25 02:03:06;;;;;;;18.67;15.17;;;8.10;99.90;;;;;;8216579;28;20188;-66
2022/04/25 02:07:09;;;;;;;19.23;14.80;;;8.10;99.90;;;;;;8232246;28;20192;-66
2022/04/25 02:11:22;;;;;;;21.63;14.60;;;8.00;99.90;;;;;;8232953;28;20220;-68
2022/04/25 02:15:23;;;;;;;18.60;15.67;;;8.00;99.90;;;;;;8231656;28;20189;-69
2022/04/25 02:19:28;;;;;;;20.03;15.00;;;7.90;99.90;;;;;;8233809;28;20770;-69
2022/04/25 02:23:29;;;;;;;21.53;15.23;;;7.80;99.90;;;;;;8231280;28;20279;-69
2022/04/25 02:27:30;;;;;;;19.67;15.60;;;7.80;99.90;;;;;;8229137;28;20224;-70
2022/04/25 02:31:31;;;;;;;18.63;15.30;;;7.80;99.90;;;;;;8231620;28;20216;-66
2022/04/25 02:35:32;;;;;;;21.57;15.80;;;7.80;99.90;;;;;;8229973;28;20593;-66
2022/04/25 02:39:33;;;;;;;22.23;16.70;;;7.80;99.90;;;;;;8231719;28;20212;-70
2022/04/25 02:43:39;;;;;;;20.57;16.37;;;7.80;99.90;;;;;;8229817;28;20198;-70
2022/04/25 02:47:41;;;;;;;19.73;15.63;;;7.80;99.90;;;;;;8232127;28;20192;-70
2022/04/25 02:51:43;;;;;;;18.27;15.43;;;7.70;99.90;;;;;;8215056;28;20216;-71
2022/04/25 02:55:45;;;;;;;23.17;16.17;;;7.70;99.90;;;;;;8218200;28;20191;-71
2022/04/25 02:59:45;;;;;;;21.77;16.37;;;7.60;99.90;;;;;;8233908;28;20226;-70
2022/04/25 03:03:46;;;;;;;21.07;16.83;;;7.60;99.90;;;;;;8217115;28;20188;-70
2022/04/25 03:07:47;;;;;;;25.10;16.67;;;7.50;99.90;;;;;;8232580;28;20203;-68
2022/04/25 03:11:50;;;;;;;20.20;15.60;;;7.40;99.90;;;;;;8234324;28;20219;-68
2022/04/25 03:15:51;;;;;;;18.87;14.27;;;7.30;99.90;;;;;;8213624;28;20337;-67
2022/04/25 03:19:51;;;;;;;19.53;14.17;;;7.30;99.90;;;;;;8230882;28;20243;-69
2022/04/25 03:23:53;;;;;;;17.10;13.37;;;7.30;99.90;;;;;;8232366;28;20696;-68
2022/04/25 03:27:54;;;;;;;19.27;13.50;;;7.20;99.90;;;;;;8214150;28;21366;-68
2022/04/25 03:31:55;;;;;;;20.37;14.80;;;7.20;99.90;;;;;;8227955;28;20286;-69
2022/04/25 03:35:56;;;;;;;19.37;15.23;;;7.20;99.90;;;;;;8232183;28;20193;-67
2022/04/25 03:39:58;;;;;;;27.57;21.73;;;7.20;99.90;;;;;;8222218;28;20246;-67
2022/04/25 03:43:59;;;;;;;19.43;15.17;;;7.20;99.90;;;;;;8223070;28;20332;-69
2022/04/25 03:48:00;;;;;;;19.60;13.03;;;7.10;99.90;;;;;;8233743;28;20250;-69
2022/04/25 03:52:01;;;;;;;18.67;13.40;;;7.10;99.90;;;;;;8229866;28;20263;-69
2022/04/25 04:00:22;;;;;;;17.93;12.97;;;7.00;99.90;;;;;;8212458;28;20247;-68
2022/04/25 04:04:23;;;;;;;19.33;14.07;;;7.00;99.90;;;;;;8213211;28;20659;-69
2022/04/25 04:08:24;;;;;;;21.27;13.93;;;7.00;99.90;;;;;;8215637;28;20203;-69
2022/04/25 04:12:31;;;;;;;16.73;14.07;;;7.00;99.90;;;;;;8217693;28;20259;-69
2022/04/25 04:16:31;;;;;;;20.47;14.43;;;7.00;99.90;;;;;;8217937;28;20181;-68
2022/04/25 04:20:33;;;;;;;19.27;15.10;;;6.90;99.90;;;;;;8216927;28;20238;-69
2022/04/25 04:24:36;;;;;;;17.60;14.20;;;6.90;99.90;;;;;;8231192;28;20279;-69
2022/04/25 04:28:37;;;;;;;21.27;14.73;;;6.90;99.90;;;;;;8217359;28;20201;-70
2022/04/25 04:32:40;;;;;;;22.73;15.23;;;6.90;99.90;;;;;;8213673;28;20446;-69
2022/04/25 04:36:41;;;;;;;22.97;15.57;;;6.90;99.90;;;;;;8227016;28;20275;-70
2022/04/25 04:40:42;;;;;;;21.97;15.13;;;6.90;99.90;;;;;;8216724;28;20235;-68
2022/04/25 04:44:43;;;;;;;19.73;15.47;;;6.90;99.90;;;;;;8213325;28;20247;-69
2022/04/25 04:48:44;;;;;;;19.97;15.20;;;6.90;99.90;;;;;;8220183;28;20204;-70
2022/04/25 04:52:47;;;;;;;17.23;13.10;;;6.90;99.90;;;;;;8219869;28;20191;-67
2022/04/25 04:56:48;;;;;;;18.87;14.10;;;6.90;99.90;;;;;;8220799;28;20313;-69
2022/04/25 05:00:49;;;;;;;19.43;14.80;;;6.90;99.90;;;;;;8220610;28;20213;-70
2022/04/25 05:04:50;;;;;;;19.80;13.97;;;6.90;99.90;;;;;;8217777;28;20219;-69
2022/04/25 05:08:51;;;;;;;18.73;14.47;;;6.90;99.90;;;;;;8234168;28;20208;-69
2022/04/25 05:12:56;;;;;;;16.33;12.63;;;7.00;99.90;;;;;;8218130;28;20184;-68
2022/04/25 05:16:56;;;;;;;15.97;13.20;;;6.90;99.90;;;;;;8235403;28;20185;-69
2022/04/25 05:20:58;;;;;;;16.97;12.20;;;6.90;99.90;;;;;;8237212;28;20193;-69
2022/04/25 05:24:59;;;;;;;15.03;12.80;;;6.90;99.90;;;;;;8214613;28;20189;-69
2022/04/25 05:29:00;;;;;;;14.73;11.83;;;7.00;99.90;;;;;;8215958;28;20219;-68
2022/04/25 05:33:03;;;;;;;16.10;11.87;;;7.00;99.90;;;;;;8216958;28;20188;-66
2022/04/25 05:37:04;;;;;;;14.27;11.27;;;7.00;99.90;;;;;;8222291;28;20239;-71
2022/04/25 05:41:07;;;;;;;11.10;9.37;;;7.10;99.90;;;;;;8213346;28;20204;-70
2022/04/25 05:45:09;;;;;;;10.43;8.87;;;7.10;99.90;;;;;;8209722;28;20216;-68
2022/04/25 05:53:29;;;;;;;13.37;10.13;;;7.00;99.90;;;;;;8218041;28;20201;-65
2022/04/25 05:57:30;;;;;;;12.50;9.20;;;6.90;99.90;;;;;;8230602;28;20188;-69
2022/04/25 06:01:31;;;;;;;14.27;10.90;;;6.90;99.90;;;;;;8234947;28;20262;-70
2022/04/25 06:05:32;;;;;;;12.60;10.73;;;6.90;99.90;;;;;;8232833;28;20197;-68
2022/04/25 06:09:34;;;;;;;13.00;10.93;;;6.90;99.90;;;;;;8219529;28;20216;-72
2022/04/25 06:13:35;;;;;;;12.70;10.50;;;7.00;99.90;;;;;;8230521;28;20189;-68
2022/04/25 06:17:37;;;;;;;13.90;11.33;;;7.10;99.90;;;;;;8232886;28;20188;-69
2022/04/25 06:21:38;;;;;;;14.83;12.13;;;7.10;99.90;;;;;;8218850;28;20192;-70
2022/04/25 06:25:38;;;;;;;14.40;11.07;;;7.10;99.90;;;;;;8217604;28;20251;-69
2022/04/25 06:29:42;;;;;;;11.53;9.70;;;7.10;99.90;;;;;;8215003;28;20218;-69
2022/04/25 06:33:43;;;;;;;12.97;10.53;;;7.10;99.90;;;;;;8231025;28;20240;-67
2022/04/25 06:37:44;;;;;;;15.03;10.57;;;7.10;99.90;;;;;;8213066;28;20192;-68
2022/04/25 06:41:46;;;;;;;12.70;10.27;;;7.10;99.90;;;;;;8230676;28;20236;-68
2022/04/25 06:45:47;;;;;;;11.50;9.80;;;7.10;99.90;;;;;;8214217;28;20189;-68
2022/04/25 06:49:48;;;;;;;12.73;10.60;;;7.10;99.90;;;;;;8217497;28;20239;-68
2022/04/25 06:53:49;;;;;;;11.27;9.27;;;7.10;99.90;;;;;;8231855;28;20199;-68
2022/04/25 06:57:52;;;;;;;12.97;10.07;;;7.20;99.90;;;;;;8213689;28;20189;-69
2022/04/25 07:01:53;;;;;;;14.87;9.87;;;7.10;99.90;;;;;;8233667;28;20217;-69
2022/04/25 07:05:55;;;;;;;10.27;8.10;;;7.20;99.90;;;;;;8213635;28;20192;-69
2022/04/25 07:09:56;;;;;;;10.67;9.07;;;7.10;99.90;;;;;;8214515;28;20204;-68
2022/04/25 07:13:57;;;;;;;9.43;7.70;;;7.10;99.90;;;;;;8229416;28;20203;-70
2022/04/25 07:18:00;;;;;;;10.43;7.93;;;7.00;99.90;;;;;;8227754;28;20199;-70
2022/04/25 07:30:39;;;;;;;14.03;8.73;;;6.90;99.90;;;;;;8212940;28;20231;-68
2022/04/25 07:34:39;;;;;;;9.30;7.27;;;6.90;99.90;;;;;;8228926;28;20192;-68
2022/04/25 07:38:41;;;;;;;9.67;7.90;;;7.00;99.90;;;;;;8214579;28;20219;-68
2022/04/25 07:42:41;;;;;;;10.13;7.37;;;7.20;99.90;;;;;;8213659;28;20181;-68
2022/04/25 07:46:44;;;;;;;7.57;5.83;;;7.20;99.90;;;;;;8226245;28;20188;-69
2022/04/25 07:50:45;;;;;;;9.17;7.83;;;7.30;99.90;;;;;;8213875;28;20209;-68
2022/04/25 07:54:46;;;;;;;11.07;9.80;;;7.40;99.90;;;;;;8223185;28;20509;-66
2022/04/25 07:58:46;;;;;;;21.47;15.93;;;7.60;99.90;;;;;;8211768;28;20220;-67
2022/04/25 08:02:47;;;;;;;10.30;7.63;;;7.80;99.90;;;;;;8213885;28;20184;-69
2022/04/25 08:06:48;;;;;;;10.67;8.80;;;7.80;99.90;;;;;;8213300;28;20189;-68
2022/04/25 08:10:49;;;;;;;11.37;7.30;;;7.80;99.90;;;;;;8225450;28;20228;-68
2022/04/25 08:19:09;;;;;;;9.90;7.20;;;7.40;99.90;;;;;;8210764;28;20206;-69
2022/04/25 08:23:12;;;;;;;7.87;7.07;;;7.10;99.90;;;;;;8224930;28;20189;-68
2022/04/25 08:27:14;;;;;;;11.00;7.07;;;6.90;99.90;;;;;;8218102;28;20342;-67
2022/04/25 08:31:15;;;;;;;10.67;7.83;;;6.90;99.90;;;;;;8236597;28;20213;-69
2022/04/25 08:35:15;;;;;;;8.57;6.63;;;6.90;99.90;;;;;;8222089;28;20192;-68
2022/04/25 08:39:16;;;;;;;7.70;6.90;;;6.90;99.90;;;;;;8218126;28;20567;-68
2022/04/25 08:43:18;;;;;;;8.53;6.67;;;7.00;99.90;;;;;;8236137;28;20307;-67
2022/04/25 08:47:20;;;;;;;8.87;6.47;;;7.00;99.90;;;;;;8220388;28;20220;-68
2022/04/25 08:51:22;;;;;;;8.97;6.60;;;7.10;99.90;;;;;;8219231;28;20216;-67
2022/04/25 08:55:23;;;;;;;9.93;7.33;;;7.30;99.90;;;;;;8216708;28;20185;-67
2022/04/25 08:59:26;;;;;;;11.27;8.27;;;7.40;99.90;;;;;;8218240;28;20204;-68
2022/04/25 09:03:27;;;;;;;8.90;7.20;;;7.50;99.90;;;;;;8216270;28;20219;-68
2022/04/25 09:07:28;;;;;;;8.73;7.07;;;7.60;99.90;;;;;;8230587;28;20192;-69
2022/04/25 09:15:49;;;;;;;10.17;8.63;;;7.70;99.90;;;;;;8221276;28;20187;-68
2022/04/25 09:19:50;;;;;;;8.27;6.23;;;7.80;99.90;;;;;;8235205;28;20199;-68
2022/04/25 09:23:54;;;;;;;7.07;5.13;;;7.70;99.90;;;;;;8234658;28;20200;-68
2022/04/25 09:28:11;;;;;;;6.27;5.53;;;7.50;99.90;;;;;;8216713;28;20259;-67
2022/04/25 09:32:13;;;;;;;9.20;7.37;;;7.40;99.90;;;;;;8232829;28;20235;-67
2022/04/25 09:36:14;;;;;;;7.47;6.67;;;7.20;99.90;;;;;;8218708;28;20283;-68
2022/04/25 09:40:20;;;;;;;17.33;11.97;;;7.20;99.90;;;;;;8233266;28;20212;-67
2022/04/25 09:44:21;;;;;;;143.13;57.43;;;7.50;99.90;;;;;;8233413;28;20256;-68
2022/04/25 09:48:24;;;;;;;12.97;8.43;;;7.90;99.90;;;;;;8231142;28;20196;-68
2022/04/25 09:52:25;;;;;;;6.83;5.50;;;8.10;99.90;;;;;;8226892;28;20312;-71
2022/04/25 09:56:30;;;;;;;11.97;6.93;;;8.10;99.90;;;;;;8214982;28;20642;-69
2022/04/25 10:00:34;;;;;;;7.90;5.80;;;8.10;99.90;;;;;;8217292;28;20217;-69
2022/04/25 10:04:36;;;;;;;5.53;4.80;;;7.90;99.90;;;;;;8214307;28;20255;-69
2022/04/25 10:08:38;;;;;;;45.00;18.07;;;7.90;99.90;;;;;;8214664;28;20184;-68
2022/04/25 10:12:39;;;;;;;9.47;6.17;;;8.00;99.90;;;;;;8211971;28;20184;-69
2022/04/25 10:16:41;;;;;;;5.70;5.00;;;8.20;99.90;;;;;;8209230;28;20520;-68
2022/04/25 10:20:45;;;;;;;21.87;10.70;;;8.30;99.90;;;;;;8230487;28;20275;-69
2022/04/25 10:24:46;;;;;;;13.10;7.60;;;8.40;99.90;;;;;;8213744;28;20189;-68
2022/04/25 10:28:54;;;;;;;8.03;5.83;;;8.40;99.90;;;;;;8215089;28;20200;-68
2022/04/25 10:33:16;;;;;;;7.27;5.50;;;8.40;99.90;;;;;;8212888;28;20239;-69
2022/04/25 10:37:34;;;;;;;6.30;4.70;;;8.20;99.90;;;;;;8214023;28;20636;-68
2022/04/25 10:45:59;;;;;;;5.57;4.17;;;8.30;99.90;;;;;;8215545;28;20212;-70
2022/04/25 10:50:03;;;;;;;7.30;5.13;;;8.10;99.90;;;;;;8216873;28;20244;-70
2022/04/25 10:54:05;;;;;;;5.33;4.63;;;8.00;99.90;;;;;;8226366;28;20244;-68
2022/04/25 10:58:07;;;;;;;30.17;13.97;;;8.00;99.90;;;;;;8231392;28;20192;-68
2022/04/25 11:02:25;;;;;;;6.60;5.50;;;8.20;99.90;;;;;;8226759;28;20200;-69
2022/04/25 11:06:26;;;;;;;7.80;6.43;;;8.10;99.90;;;;;;8210873;28;20193;-68
2022/04/25 11:10:49;;;;;;;8.37;6.17;;;7.90;99.90;;;;;;8213442;28;20220;-68
2022/04/25 11:15:01;;;;;;;8.03;5.27;;;7.90;99.90;;;;;;8212158;28;20308;-68
2022/04/25 11:19:24;;;;;;;7.63;5.83;;;7.90;99.90;;;;;;8229921;28;20204;-69
2022/04/25 11:23:30;;;;;;;7.50;5.60;;;8.10;99.90;;;;;;8209980;28;20216;-68
2022/04/25 11:28:10;;;;;;;5.77;4.47;;;8.30;99.90;;;;;;8211504;28;20267;-68
2022/04/25 11:32:35;;;;;;;5.50;4.43;;;8.80;99.90;;;;;;8227653;28;20224;-67
2022/04/25 11:36:41;;;;;;;6.00;4.30;;;8.90;99.90;;;;;;8213745;28;20191;-68
2022/04/25 11:40:42;;;;;;;5.83;4.70;;;9.10;99.90;;;;;;8215490;28;20559;-68
2022/04/25 11:44:44;;;;;;;4.33;3.77;;;9.20;99.90;;;;;;8232064;28;20256;-68
2022/04/25 11:48:52;;;;;;;6.07;4.40;;;9.10;99.90;;;;;;8225461;28;20824;-69
2022/04/25 11:52:56;;;;;;;4.77;3.90;;;8.80;99.90;;;;;;8226118;28;20189;-69
2022/04/25 11:57:01;;;;;;;4.93;4.40;;;8.70;99.90;;;;;;8211188;28;20205;-71
2022/04/25 12:01:02;;;;;;;6.13;4.50;;;8.70;99.90;;;;;;8230702;28;20256;-69
2022/04/25 12:05:07;;;;;;;8.17;6.13;;;8.80;99.90;;;;;;8229136;28;20192;-69
2022/04/25 12:17:52;;;;;;;6.73;5.00;;;8.60;99.90;;;;;;8208271;28;20219;-69
2022/04/25 12:22:01;;;;;;;7.90;5.63;;;8.60;99.90;;;;;;8209339;28;20216;-70
2022/04/25 12:26:03;;;;;;;7.20;6.40;;;8.50;99.90;;;;;;8211449;28;20200;-69
2022/04/25 12:30:06;;;;;;;7.60;6.27;;;8.30;99.90;;;;;;8230427;28;20216;-70
2022/04/25 12:34:08;;;;;;;8.33;6.43;;;8.30;99.90;;;;;;8209141;28;20212;-69
2022/04/25 12:38:10;;;;;;;9.03;6.90;;;8.40;99.90;;;;;;8228905;28;20192;-70
2022/04/25 12:42:11;;;;;;;8.30;7.03;;;8.60;99.90;;;;;;8230636;28;20197;-70
2022/04/25 12:46:15;;;;;;;9.60;7.00;;;8.70;99.90;;;;;;8213979;28;20220;-69
2022/04/25 12:50:15;;;;;;;9.50;7.00;;;8.70;99.90;;;;;;8211306;28;20212;-68
2022/04/25 12:54:21;;;;;;;9.43;7.50;;;8.50;99.90;;;;;;8211865;28;20185;-69
2022/04/25 12:58:22;;;;;;;12.00;7.37;;;8.50;99.90;;;;;;8210596;28;20523;-69
2022/04/25 13:02:32;;;;;;;12.77;8.47;;;8.60;99.90;;;;;;8211896;28;20210;-69
2022/04/25 13:06:35;;;;;;;10.60;8.60;;;8.70;99.90;;;;;;8229898;28;20199;-69
2022/04/25 13:10:36;;;;;;;8.93;8.03;;;8.80;99.90;;;;;;8218986;28;20208;-70
2022/04/25 13:14:37;;;;;;;12.53;8.50;;;8.80;99.90;;;;;;8233421;28;20185;-69
2022/04/25 13:18:38;;;;;;;9.20;7.17;;;8.80;99.90;;;;;;8233400;28;20192;-71
2022/04/25 13:22:39;;;;;;;8.37;7.47;;;8.80;99.90;;;;;;8233398;28;20200;-70
2022/04/25 13:26:40;;;;;;;8.30;6.97;;;9.00;99.90;;;;;;8213302;28;20185;-69
2022/04/25 13:30:41;;;;;;;8.97;7.23;;;9.20;99.90;;;;;;8232633;28;20240;-70
2022/04/25 13:34:42;;;;;;;9.20;7.70;;;9.30;99.90;;;;;;8216458;28;20185;-70
2022/04/25 13:38:43;;;;;;;8.17;5.73;;;9.40;99.90;;;;;;8222684;28;20200;-69
2022/04/25 13:42:45;;;;;;;8.03;6.27;;;9.50;99.90;;;;;;8217691;28;20215;-69
2022/04/25 13:46:47;;;;;;;7.40;5.70;;;9.40;99.90;;;;;;8233752;28;20193;-68
2022/04/25 13:50:48;;;;;;;7.07;6.03;;;9.40;99.90;;;;;;8234798;28;20220;-69
2022/04/25 13:54:49;;;;;;;10.30;6.57;;;9.20;99.90;;;;;;8232375;28;20280;-69
2022/04/25 13:58:50;;;;;;;10.03;6.90;;;9.10;99.90;;;;;;8231823;28;20185;-69
2022/04/25 14:03:06;;;;;;;8.30;6.17;;;9.00;99.90;;;;;;8231551;28;20177;-69
2022/04/25 14:07:08;;;;;;;17.20;7.63;;;8.90;99.90;;;;;;8236186;28;20188;-70
2022/04/25 14:11:08;;;;;;;15.90;9.07;;;8.80;99.90;;;;;;8208233;28;20225;-70
2022/04/25 14:15:09;;;;;;;10.97;7.53;;;8.70;99.90;;;;;;8233759;28;20204;-70
2022/04/25 14:19:10;;;;;;;11.97;8.57;;;8.70;99.90;;;;;;8231254;28;20184;-70
2022/04/25 14:23:11;;;;;;;10.37;7.43;;;8.70;99.90;;;;;;8220078;28;20203;-69
2022/04/25 14:27:12;;;;;;;9.83;6.50;;;8.70;99.90;;;;;;8232982;28;20197;-69
2022/04/25 14:31:13;;;;;;;8.27;7.13;;;8.80;99.90;;;;;;8215886;28;20276;-69
2022/04/25 14:35:14;;;;;;;9.00;6.27;;;8.90;99.90;;;;;;8236501;28;20267;-68
2022/04/25 14:39:15;;;;;;;6.27;5.37;;;9.00;99.90;;;;;;8235923;28;20213;-71
2022/04/25 14:43:15;;;;;;;8.87;5.77;;;9.10;99.90;;;;;;8237437;28;20189;-71
2022/04/25 14:47:16;;;;;;;11.70;5.83;;;9.10;99.90;;;;;;8234449;28;20195;-69
2022/04/25 14:55:37;;;;;;;8.40;6.07;;;9.00;99.90;;;;;;8219801;28;20199;-69
2022/04/25 14:59:38;;;;;;;8.57;6.13;;;9.00;99.90;;;;;;8214756;28;20228;-69
2022/04/25 15:03:39;;;;;;;11.10;6.33;;;8.90;99.90;;;;;;8235006;28;20189;-70
2022/04/25 15:07:40;;;;;;;7.67;6.00;;;9.00;99.90;;;;;;8217157;28;20189;-69
2022/04/25 15:11:41;;;;;;;6.10;4.93;;;9.00;99.90;;;;;;8232733;28;20216;-70
2022/04/25 15:15:42;;;;;;;7.87;5.97;;;9.10;99.90;;;;;;8232764;28;20319;-70
2022/04/25 15:19:43;;;;;;;6.07;5.23;;;9.20;99.90;;;;;;8231568;28;20200;-70
2022/04/25 15:23:44;;;;;;;9.33;6.03;;;9.30;99.90;;;;;;8227800;28;20189;-72
2022/04/25 15:27:45;;;;;;;11.93;6.00;;;9.40;99.90;;;;;;8226950;28;20284;-69
2022/04/25 15:31:45;;;;;;;6.43;4.70;;;9.50;99.90;;;;;;8230571;28;20213;-70
2022/04/25 15:35:47;;;;;;;16.77;10.67;;;9.50;99.90;;;;;;8215466;28;20188;-70
2022/04/25 15:39:48;;;;;;;7.60;5.57;;;9.60;99.90;;;;;;8214826;28;20352;-69
2022/04/25 15:43:48;;;;;;;7.80;6.03;;;9.60;99.90;;;;;;8231157;28;20195;-69
2022/04/25 15:47:49;;;;;;;7.13;5.33;;;9.70;99.90;;;;;;8212652;28;20292;-68
2022/04/25 15:51:53;;;;;;;6.57;5.87;;;9.80;99.90;;;;;;8216367;28;20240;-69
2022/04/25 16:00:25;;;;;;;6.07;4.27;;;10.10;99.90;;;;;;8208694;28;20201;-70
2022/04/25 16:04:25;;;;;;;6.10;4.90;;;10.10;99.90;;;;;;8216596;28;20190;-69
2022/04/25 16:08:26;;;;;;;8.37;5.10;;;10.00;99.90;;;;;;8230961;28;20286;-69
2022/04/25 16:12:27;;;;;;;4.90;4.23;;;9.80;99.90;;;;;;8215127;28;20312;-70
2022/04/25 16:16:28;;;;;;;7.43;5.10;;;9.70;99.90;;;;;;8231107;28;20275;-69
2022/04/25 16:20:30;;;;;;;6.60;4.50;;;9.60;99.90;;;;;;8216758;28;20192;-70
2022/04/25 16:24:31;;;;;;;6.03;5.00;;;9.50;99.90;;;;;;8214890;28;20261;-70
2022/04/25 16:28:32;;;;;;;5.93;4.47;;;9.40;99.90;;;;;;8229655;28;20259;-70
2022/04/25 16:32:33;;;;;;;6.13;4.57;;;9.40;99.90;;;;;;8228656;28;20205;-70
2022/04/25 16:36:34;;;;;;;5.80;4.33;;;9.30;99.90;;;;;;8216642;28;20246;-70
2022/04/25 16:40:35;;;;;;;5.40;4.53;;;9.30;99.90;;;;;;8211810;28;20432;-70
2022/04/25 16:44:36;;;;;;;6.67;5.43;;;9.30;99.90;;;;;;8235523;28;20201;-70
2022/04/25 16:48:37;;;;;;;6.77;5.40;;;9.20;99.90;;;;;;8235268;28;20197;-69
2022/04/25 16:52:38;;;;;;;6.93;5.70;;;9.20;99.90;;;;;;8221085;28;20263;-69
2022/04/25 16:56:39;;;;;;;6.07;5.10;;;9.10;99.90;;;;;;8231638;28;20189;-69
2022/04/25 17:00:40;;;;;;;6.93;6.03;;;9.00;99.90;;;;;;8230589;28;20566;-69
2022/04/25 17:04:41;;;;;;;8.23;5.73;;;8.90;99.90;;;;;;8227408;28;20227;-69
2022/04/25 17:08:45;;;;;;;7.53;4.93;;;8.80;99.90;;;;;;8214280;28;20311;-69
2022/04/25 17:12:46;;;;;;;6.27;4.83;;;8.80;99.90;;;;;;8235032;28;20227;-68
2022/04/25 17:16:47;;;;;;;6.13;4.97;;;8.80;99.90;;;;;;8239203;28;20184;-69
2022/04/25 17:20:48;;;;;;;6.77;5.10;;;8.70;99.90;;;;;;8238857;28;20196;-69
2022/04/25 17:24:49;;;;;;;6.47;5.20;;;8.70;99.90;;;;;;8218062;28;20228;-69
2022/04/25 17:28:50;;;;;;;7.50;5.60;;;8.70;99.90;;;;;;8236305;28;20511;-69
